createdAt,value
2022-12-16T00:03:02.750Z,97.54
2022-12-16T00:08:06.491Z,97.57
2022-12-16T00:13:10.775Z,97.53
2022-12-16T00:18:14.443Z,97.53
2022-12-16T00:23:18.064Z,97.63
2022-12-16T00:28:23.332Z,97.95
2022-12-16T00:33:27.858Z,97.92
2022-12-16T00:38:31.270Z,98.00
2022-12-16T00:43:34.910Z,97.69
2022-12-16T00:48:38.506Z,97.36
2022-12-16T00:53:41.919Z,97.86
2022-12-16T00:58:45.332Z,98.15
2022-12-16T01:03:48.928Z,97.87
2022-12-16T01:08:52.467Z,97.91
2022-12-16T01:13:58.234Z,97.82
2022-12-16T01:19:01.852Z,98.25
2022-12-16T01:24:05.676Z,98.40
2022-12-16T01:29:08.990Z,98.15
2022-12-16T01:34:12.401Z,97.84
2022-12-16T01:39:15.707Z,97.91
2022-12-16T01:44:28.134Z,97.86
2022-12-16T01:49:42.093Z,98.10
2022-12-16T01:54:56.053Z,97.87
2022-12-16T02:00:01.723Z,98.30
2022-12-16T02:05:20.809Z,98.25
2022-12-16T02:10:43.671Z,98.07
2022-12-16T02:16:05.720Z,97.70
2022-12-16T02:21:18.245Z,97.76
2022-12-16T02:27:19.523Z,97.80
2022-12-16T02:32:22.829Z,97.31
2022-12-16T02:37:43.340Z,97.51
2022-12-16T02:42:54.025Z,97.69
2022-12-16T02:47:58.665Z,98.03
2022-12-16T02:53:03.204Z,97.78
2022-12-16T02:58:28.122Z,97.60
2022-12-16T03:03:45.391Z,97.99
2022-12-16T03:08:54.202Z,98.05
2022-12-16T03:13:59.512Z,98.34
2022-12-16T03:19:08.533Z,98.10
2022-12-16T03:24:14.880Z,98.48
2022-12-16T03:29:28.026Z,98.40
2022-12-16T03:34:45.569Z,98.28
2022-12-16T03:39:53.693Z,97.86
2022-12-16T03:44:57.619Z,98.12
2022-12-16T03:50:01.036Z,98.14
2022-12-16T03:55:04.913Z,98.12
2022-12-16T04:00:09.624Z,97.75
2022-12-16T04:05:13.726Z,97.92
2022-12-16T04:10:17.346Z,97.91
2022-12-16T04:15:40.174Z,97.99
2022-12-16T04:21:06.772Z,98.04
2022-12-16T04:26:10.798Z,98.31
2022-12-16T04:31:14.194Z,98.47
2022-12-16T04:36:36.567Z,98.52
2022-12-16T04:41:58.517Z,98.16
2022-12-16T04:47:20.669Z,98.24
2022-12-16T04:52:42.922Z,98.29
2022-12-16T04:58:12.964Z,98.28
2022-12-16T05:03:35.621Z,98.37
2022-12-16T05:08:57.981Z,98.50
2022-12-16T05:14:20.337Z,98.28
2022-12-16T05:19:42.697Z,98.19
2022-12-16T05:25:05.052Z,98.05
2022-12-16T05:30:33.374Z,98.12
2022-12-16T05:35:56.118Z,97.96
2022-12-16T05:41:18.574Z,98.04
2022-12-16T05:46:41.072Z,97.54
2022-12-16T05:52:03.202Z,97.25
2022-12-16T05:57:25.752Z,96.36
2022-12-16T06:02:48.401Z,96.34
2022-12-16T06:08:12.107Z,96.84
2022-12-16T06:13:34.663Z,96.80
2022-12-16T06:18:57.020Z,97.12
2022-12-16T06:24:19.083Z,97.43
2022-12-16T06:29:41.326Z,98.00
2022-12-16T06:35:03.586Z,97.81
2022-12-16T06:40:26.349Z,97.22
2022-12-16T06:45:48.650Z,96.69
2022-12-16T06:51:10.652Z,97.49
2022-12-16T06:56:32.905Z,97.93
2022-12-16T07:01:55.358Z,97.73
2022-12-16T07:07:17.965Z,97.65
2022-12-16T07:12:40.284Z,97.52
2022-12-16T07:18:04.486Z,97.13
2022-12-16T07:23:26.847Z,96.74
2022-12-16T07:28:49.200Z,97.67
2022-12-16T07:34:11.356Z,98.02
2022-12-16T07:39:33.402Z,98.12
2022-12-16T07:44:55.760Z,97.50
2022-12-16T07:50:17.894Z,97.33
2022-12-16T07:55:40.064Z,97.54
2022-12-16T08:01:07.709Z,97.98
2022-12-16T08:06:34.781Z,97.94
2022-12-16T08:11:59.630Z,97.97
2022-12-16T08:17:21.780Z,97.65
2022-12-16T08:22:44.139Z,97.95
2022-12-16T08:28:05.978Z,97.89
2022-12-16T08:33:28.033Z,98.53
2022-12-16T08:38:50.390Z,98.39
2022-12-16T08:44:13.164Z,98.62
2022-12-16T08:49:35.575Z,98.28
2022-12-16T08:54:57.870Z,98.38
2022-12-16T09:00:19.717Z,98.05
2022-12-16T09:05:42.485Z,97.87
2022-12-16T09:11:04.840Z,97.81
2022-12-16T09:16:27.031Z,97.43
2022-12-16T09:21:49.248Z,97.04
2022-12-16T09:27:11.503Z,96.53
2022-12-16T09:32:33.963Z,96.36
2022-12-16T09:37:55.909Z,97.10
2022-12-16T09:43:42.638Z,97.50
2022-12-16T09:49:34.691Z,96.25
2022-12-16T09:55:00.634Z,97.08
2022-12-16T10:00:26.371Z,96.87
2022-12-16T10:06:07.362Z,97.02
2022-12-16T10:11:55.640Z,96.10
2022-12-16T10:17:31.606Z,95.56
2022-12-16T10:23:10.246Z,95.38
2022-12-16T10:28:56.774Z,94.67
2022-12-16T10:34:19.231Z,94.46
2022-12-16T10:39:52.900Z,94.25
2022-12-16T10:45:20.734Z,94.77
2022-12-16T10:50:43.207Z,94.35
2022-12-16T10:56:37.304Z,94.43
2022-12-16T11:01:59.711Z,95.27
2022-12-16T11:07:36.042Z,95.49
2022-12-16T11:12:58.088Z,94.86
2022-12-16T11:18:24.236Z,93.13
2022-12-16T11:23:46.181Z,92.78
2022-12-16T11:29:32.914Z,93.38
2022-12-16T11:34:56.395Z,92.19
2022-12-16T11:40:21.211Z,92.95
2022-12-16T11:45:43.565Z,93.47
2022-12-16T11:51:17.597Z,93.17
2022-12-16T11:56:43.386Z,93.72
2022-12-16T12:02:13.959Z,93.61
2022-12-16T12:07:53.337Z,94.16
2022-12-16T12:13:42.836Z,93.25
2022-12-16T12:19:18.194Z,93.22
2022-12-16T12:25:07.072Z,93.41
2022-12-16T12:30:31.074Z,93.00
2022-12-16T12:36:24.660Z,92.84
2022-12-16T12:42:06.163Z,92.86
2022-12-16T12:47:30.980Z,93.06
2022-12-16T12:53:05.632Z,93.01
2022-12-16T12:58:30.131Z,93.33
2022-12-16T13:04:01.806Z,93.78
2022-12-16T13:09:46.900Z,94.36
2022-12-16T13:15:09.151Z,94.35
2022-12-16T13:20:53.321Z,93.86
2022-12-16T13:26:24.381Z,93.50
2022-12-16T13:31:49.645Z,93.20
2022-12-16T13:37:17.844Z,93.78
2022-12-16T13:43:09.239Z,93.72
2022-12-16T13:49:00.678Z,93.23
2022-12-16T13:54:26.414Z,92.79
2022-12-16T13:59:51.230Z,92.04
2022-12-16T14:05:13.690Z,92.23
2022-12-16T14:10:47.516Z,92.76
2022-12-16T14:16:25.080Z,92.84
2022-12-16T14:22:29.574Z,93.04
2022-12-16T14:27:53.772Z,92.76
2022-12-16T14:33:15.823Z,93.21
2022-12-16T14:38:46.167Z,93.41
2022-12-16T14:44:08.526Z,93.08
2022-12-16T14:49:43.681Z,92.73
2022-12-16T14:55:05.632Z,92.77
2022-12-16T15:00:27.679Z,93.21
2022-12-16T15:05:54.034Z,93.15
2022-12-16T15:11:19.875Z,93.77
2022-12-16T15:16:50.365Z,93.89
2022-12-16T15:22:12.573Z,93.72
2022-12-16T15:27:40.560Z,93.69
2022-12-16T15:33:11.213Z,93.85
2022-12-16T15:38:43.193Z,94.68
2022-12-16T15:44:08.935Z,94.44
2022-12-16T15:49:45.521Z,94.57
2022-12-16T15:55:13.306Z,93.81
2022-12-16T16:00:43.875Z,93.98
2022-12-16T16:06:05.803Z,94.00
2022-12-16T16:11:28.269Z,93.94
2022-12-16T16:16:50.311Z,93.85
2022-12-16T16:22:12.566Z,93.59
2022-12-16T16:27:35.847Z,93.68
2022-12-16T16:32:58.108Z,93.50
2022-12-16T16:38:20.458Z,93.77
2022-12-16T16:43:43.325Z,93.41
2022-12-16T16:49:05.587Z,93.25
2022-12-16T16:54:27.543Z,93.00
2022-12-16T16:59:49.885Z,93.23
2022-12-16T17:05:12.445Z,93.33
2022-12-16T17:10:35.725Z,93.36
2022-12-16T17:15:57.942Z,93.58
2022-12-16T17:21:20.037Z,93.38
2022-12-16T17:26:42.796Z,93.81
2022-12-16T17:32:04.743Z,93.81
2022-12-16T17:37:27.103Z,93.53
2022-12-16T17:42:49.355Z,93.41
2022-12-16T17:48:11.303Z,93.12
2022-12-16T17:53:34.056Z,92.69
2022-12-16T17:58:58.372Z,93.24
2022-12-16T18:04:20.485Z,93.78
2022-12-16T18:09:42.576Z,93.35
2022-12-16T18:15:04.525Z,93.26
2022-12-16T18:20:27.496Z,93.03
2022-12-16T18:25:49.853Z,93.25
2022-12-16T18:31:12.062Z,93.32
2022-12-16T18:36:34.361Z,93.79
2022-12-16T18:42:01.751Z,93.24
2022-12-16T18:47:24.093Z,93.49
2022-12-16T18:52:46.348Z,93.41
2022-12-16T18:58:42.226Z,93.73
2022-12-16T19:03:54.210Z,94.04
2022-12-16T19:09:16.362Z,93.90
2022-12-16T19:14:38.831Z,93.70
2022-12-16T19:20:00.971Z,93.58
2022-12-16T19:25:23.438Z,93.48
2022-12-16T19:30:45.481Z,93.69
2022-12-16T19:36:07.634Z,93.59
2022-12-16T19:41:34.708Z,93.59
2022-12-16T19:46:56.953Z,93.77
2022-12-16T19:52:19.015Z,93.56
2022-12-16T19:57:41.464Z,93.92
2022-12-16T20:03:04.027Z,94.00
2022-12-16T20:08:26.690Z,94.07
2022-12-16T20:13:48.536Z,93.94
2022-12-16T20:19:10.891Z,93.70
2022-12-16T20:24:33.146Z,94.09
2022-12-16T20:29:56.463Z,94.30
2022-12-16T20:35:19.092Z,94.05
2022-12-16T20:40:41.451Z,93.84
2022-12-16T20:46:03.497Z,93.99
2022-12-16T20:51:27.025Z,94.03
2022-12-16T20:56:49.336Z,94.00
2022-12-16T21:02:31.742Z,93.97
2022-12-16T21:07:54.022Z,93.85
2022-12-16T21:13:16.582Z,94.11
2022-12-16T21:18:38.530Z,93.87
2022-12-16T21:24:00.474Z,94.42
2022-12-16T21:29:22.936Z,94.43
2022-12-16T21:34:44.786Z,94.28
2022-12-16T21:40:07.143Z,94.58
2022-12-16T21:45:29.807Z,94.22
2022-12-16T21:50:52.057Z,94.26
2022-12-16T21:56:15.439Z,94.20
2022-12-16T22:01:40.945Z,93.97
2022-12-16T22:07:03.429Z,94.11
2022-12-16T22:12:26.303Z,94.30
2022-12-16T22:17:53.021Z,94.01
2022-12-16T22:23:37.034Z,94.03
2022-12-16T22:28:59.280Z,94.10
2022-12-16T22:34:21.638Z,94.09
2022-12-16T22:39:45.094Z,94.10
2022-12-16T22:45:26.229Z,94.25
2022-12-16T22:50:50.520Z,94.13
2022-12-16T22:56:14.210Z,93.85
2022-12-16T23:01:38.517Z,94.27
2022-12-16T23:07:00.660Z,94.01
2022-12-16T23:12:23.847Z,94.14
2022-12-16T23:17:46.093Z,94.48
2022-12-16T23:23:08.043Z,94.20
2022-12-16T23:28:29.889Z,94.29
2022-12-16T23:33:52.346Z,94.53
2022-12-16T23:39:14.398Z,94.62
2022-12-16T23:44:36.551Z,94.45
2022-12-16T23:49:58.905Z,93.77
2022-12-16T23:55:21.159Z,94.18
